Minerva — CSXI4 — position and weather

sailwx.info

Track history (hours):
 
Tides and Currents Weather Stations Pressure Air Temp Water Temp Dewpoint Dewpoint Depression Visibility Wind Speed Wind Dir Waves Ship Positions

Minerva

Last reported at 2014-Jul-24 17:33 UTC. Time now 2014-Jul-24 17:45 UTC.
Position N 37°56' W 008°52'.

Length 11 m; draft 1.5 m.

Type: Pilot. MMSI: 263700025.

Date/timePositionNaut miles runAvg speedWind from/ knotsBaromVisibWave heightAir tempDewpointWater temp
2014-Jul-24 17:33N 37°56' W 008°52'0 0.1
2014-Jul-24 12:33N 37°57' W 008°52'1 0.6
2014-Jul-24 11:33N 37°56' W 008°51'1 0.8
2014-Jul-24 10:33N 37°57' W 008°52'1 0.6
2014-Jul-24 08:32N 37°57' W 008°53'1 0.5
2014-Jul-24 06:21N 37°57' W 008°52'1 0.9
2014-Jul-24 05:33N 37°56' W 008°52'1 0.1
2014-Jul-24 00:22N 37°57' W 008°52'1 1.5
2014-Jul-23 23:33N 37°56' W 008°51'1 0.1
2014-Jul-23 14:09N 37°57' W 008°52'1 0.9
2014-Jul-23 13:33N 37°57' W 008°52'1 0.1
2014-Jul-23 06:17N 37°57' W 008°52'1 1.3
2014-Jul-23 05:33N 37°57' W 008°53'2 0.8
2014-Jul-23 03:33N 37°55' W 008°53'2 0.9
2014-Jul-23 01:29N 37°57' W 008°52'0 0.0
2014-Jul-22 21:06N 37°57' W 008°52'1 2.0
2014-Jul-22 20:33N 37°57' W 008°53'1 0.8
2014-Jul-22 19:15N 37°57' W 008°52'1 1.5
2014-Jul-22 18:33N 37°56' W 008°51'1 0.7
2014-Jul-22 17:05N 37°57' W 008°52'1 2.2
2014-Jul-22 16:33N 37°56' W 008°51'1 0.9
2014-Jul-22 15:34N 37°56' W 008°52'0 0.1
2014-Jul-22 13:33N 37°56' W 008°52'2 0.7
2014-Jul-22 10:33N 37°54' W 008°51'2 0.4
2014-Jul-22 04:19N 37°57' W 008°52'2 2.5
2014-Jul-22 03:32N 37°55' W 008°50'2 1.9
2014-Jul-22 02:33N 37°57' W 008°52'0 0.0
2014-Jul-22 00:18N 37°57' W 008°52'1 0.5
2014-Jul-21 23:11N 37°56' W 008°51'1 0.3
2014-Jul-21 21:14N 37°57' W 008°52'1 1.5
2014-Jul-21 20:33N 37°57' W 008°53'0 0.2
2014-Jul-21 20:18N 37°57' W 008°53'1 1.5
2014-Jul-21 19:33N 37°56' W 008°52'0 0.2
2014-Jul-21 18:33N 37°56' W 008°52'1 0.4
2014-Jul-21 16:30N 37°57' W 008°52'0 0.0
2014-Jul-21 13:29N 37°57' W 008°52'1 1.2
2014-Jul-21 12:33N 37°57' W 008°53'1 0.4
2014-Jul-21 09:23N 37°57' W 008°52'0 0.0
2014-Jul-21 08:33N 37°57' W 008°52'0 0.1
2014-Jul-21 07:33N 37°57' W 008°52'0 0.0
2014-Jul-21 05:20N 37°57' W 008°52'0 0.0
2014-Jul-21 03:28N 37°57' W 008°52'1 1.1
2014-Jul-21 02:33N 37°56' W 008°51'2 0.3
2014-Jul-20 20:33N 37°56' W 008°53'1 0.4
2014-Jul-20 17:05N 37°57' W 008°52'2 3.1
2014-Jul-20 16:34N 37°55' W 008°51'1 0.5
2014-Jul-20 15:33N 37°56' W 008°51'2 1.6
2014-Jul-20 14:33N 37°56' W 008°53'1 0.2
2014-Jul-20 09:33N 37°57' W 008°52'1 0.5
2014-Jul-20 07:33N 37°56' W 008°51'1 0.9
2014-Jul-20 06:16N 37°57' W 008°52'1 1.6
2014-Jul-20 05:33N 37°56' W 008°51'1 1.1
2014-Jul-20 04:33N 37°56' W 008°52'0 0.1
2014-Jul-19 19:33N 37°56' W 008°52'2 1.0
2014-Jul-19 17:33N 37°55' W 008°52'2 1.8
2014-Jul-19 16:17N 37°57' W 008°52'0 0.1
2014-Jul-19 15:33N 37°57' W 008°52'1 1.3
2014-Jul-19 14:33N 37°57' W 008°53'1 0.3
2014-Jul-19 10:13N 37°57' W 008°52'0 0.0
2014-Jul-19 08:32N 37°57' W 008°52'1 1.2
2014-Jul-19 07:33N 37°56' W 008°51'2 0.5
2014-Jul-19 03:33N 37°57' W 008°53'2 0.6
2014-Jul-18 23:33N 37°55' W 008°51'1 0.3
2014-Jul-18 18:33N 37°56' W 008°52'1 0.3
2014-Jul-18 15:33N 37°57' W 008°52'1 0.3
2014-Jul-18 13:27N 37°57' W 008°52'0 0.0
2014-Jul-18 12:24N 37°57' W 008°52'1 0.4
2014-Jul-18 10:25N 37°56' W 008°51'1 0.4
2014-Jul-18 08:32N 37°55' W 008°51'1 1.4
2014-Jul-18 07:33N 37°57' W 008°52'0 0.0
2014-Jul-18 03:30N 37°57' W 008°52'0 0.0
2014-Jul-18 02:33N 37°57' W 008°52'0 0.0
2014-Jul-17 22:33N 37°57' W 008°52'1 0.6
2014-Jul-17 20:33N 37°57' W 008°53'1 0.6
2014-Jul-17 19:33N 37°57' W 008°52'1 0.4
2014-Jul-17 18:13N 37°57' W 008°52'1 1.7
2014-Jul-17 17:33N 37°56' W 008°51'2 0.3
2014-Jul-17 11:33N 37°54' W 008°50'3 0.5
2014-Jul-17 05:24N 37°57' W 008°52'1 1.1
2014-Jul-17 04:33N 37°56' W 008°51'1 1.2
2014-Jul-17 03:33N 37°57' W 008°52'1 0.6
2014-Jul-17 02:33N 37°57' W 008°52'0 0.2
2014-Jul-17 01:33N 37°57' W 008°52'0 0.2
2014-Jul-17 00:19N 37°57' W 008°52'1 0.9
2014-Jul-16 23:33N 37°57' W 008°52'1 0.2
2014-Jul-16 20:06N 37°57' W 008°52'0 0.4
2014-Jul-16 19:33N 37°57' W 008°52'0 0.1
2014-Jul-16 17:13N 37°57' W 008°52'1 1.9
2014-Jul-16 16:33N 37°57' W 008°53'1 0.5
2014-Jul-16 14:10N 37°57' W 008°52'1 0.1
2014-Jul-16 10:32N 37°57' W 008°52'1 0.2
2014-Jul-16 08:15N 37°57' W 008°52'1 1.4
2014-Jul-16 07:33N 37°56' W 008°52'1 0.4
2014-Jul-16 05:16N 37°57' W 008°52'0 0.0
2014-Jul-16 04:33N 37°57' W 008°52'1 1.3
2014-Jul-16 03:33N 37°57' W 008°53'2 0.3
2014-Jul-15 19:33N 37°56' W 008°51'1 0.6
2014-Jul-15 17:22N 37°57' W 008°52'0 0.2
2014-Jul-15 16:33N 37°57' W 008°52'0 0.1
2014-Jul-15 14:16N 37°57' W 008°52'0 0.0
2014-Jul-15 13:05N 37°57' W 008°52'1 1.7
2014-Jul-15 12:33N 37°56' W 008°51'2 1.9
2014-Jul-15 11:33N 37°57' W 008°53'3 1.4
2014-Jul-15 09:33N 37°55' W 008°51'1 1.0
2014-Jul-15 08:33N 37°56' W 008°51'1 1.2
2014-Jul-15 07:33N 37°57' W 008°52'0 0.0
2014-Jul-14 22:11N 37°57' W 008°52'1 1.3
2014-Jul-14 21:33N 37°56' W 008°51'0 0.2
2014-Jul-14 20:33N 37°56' W 008°51'1 0.6
2014-Jul-14 19:03N 37°57' W 008°52'1 2.4
2014-Jul-14 18:33N 37°56' W 008°51'  
Track history (hours):
 
Tides and Currents Weather Stations Pressure Air Temp Water Temp Dewpoint Dewpoint Depression Visibility Wind Speed Wind Dir Waves Ship Positions

Minerva

Last reported at 2014-Jul-24 17:33 UTC. Time now 2014-Jul-24 17:45 UTC.
Position N 37°56' W 008°52'.

Length 11 m; draft 1.5 m.

Type: Pilot. MMSI: 263700025.

Date/timePositionNaut miles runAvg speedWind from/ knotsBaromVisibWave heightAir tempDewpointWater temp
2014-Jul-24 17:33N 37°56' W 008°52'0 0.1
2014-Jul-24 12:33N 37°57' W 008°52'1 0.6
2014-Jul-24 11:33N 37°56' W 008°51'1 0.8
2014-Jul-24 10:33N 37°57' W 008°52'1 0.6
2014-Jul-24 08:32N 37°57' W 008°53'1 0.5
2014-Jul-24 06:21N 37°57' W 008°52'1 0.9
2014-Jul-24 05:33N 37°56' W 008°52'1 0.1
2014-Jul-24 00:22N 37°57' W 008°52'1 1.5
2014-Jul-23 23:33N 37°56' W 008°51'1 0.1
2014-Jul-23 14:09N 37°57' W 008°52'1 0.9
2014-Jul-23 13:33N 37°57' W 008°52'1 0.1
2014-Jul-23 06:17N 37°57' W 008°52'1 1.3
2014-Jul-23 05:33N 37°57' W 008°53'2 0.8
2014-Jul-23 03:33N 37°55' W 008°53'2 0.9
2014-Jul-23 01:29N 37°57' W 008°52'0 0.0
2014-Jul-22 21:06N 37°57' W 008°52'1 2.0
2014-Jul-22 20:33N 37°57' W 008°53'1 0.8
2014-Jul-22 19:15N 37°57' W 008°52'1 1.5
2014-Jul-22 18:33N 37°56' W 008°51'1 0.7
2014-Jul-22 17:05N 37°57' W 008°52'1 2.2
2014-Jul-22 16:33N 37°56' W 008°51'1 0.9
2014-Jul-22 15:34N 37°56' W 008°52'0 0.1
2014-Jul-22 13:33N 37°56' W 008°52'2 0.7
2014-Jul-22 10:33N 37°54' W 008°51'2 0.4
2014-Jul-22 04:19N 37°57' W 008°52'2 2.5
2014-Jul-22 03:32N 37°55' W 008°50'2 1.9
2014-Jul-22 02:33N 37°57' W 008°52'0 0.0
2014-Jul-22 00:18N 37°57' W 008°52'1 0.5
2014-Jul-21 23:11N 37°56' W 008°51'1 0.3
2014-Jul-21 21:14N 37°57' W 008°52'1 1.5
2014-Jul-21 20:33N 37°57' W 008°53'0 0.2
2014-Jul-21 20:18N 37°57' W 008°53'1 1.5
2014-Jul-21 19:33N 37°56' W 008°52'0 0.2
2014-Jul-21 18:33N 37°56' W 008°52'1 0.4
2014-Jul-21 16:30N 37°57' W 008°52'0 0.0
2014-Jul-21 13:29N 37°57' W 008°52'1 1.2
2014-Jul-21 12:33N 37°57' W 008°53'1 0.4
2014-Jul-21 09:23N 37°57' W 008°52'0 0.0
2014-Jul-21 08:33N 37°57' W 008°52'0 0.1
2014-Jul-21 07:33N 37°57' W 008°52'0 0.0
2014-Jul-21 05:20N 37°57' W 008°52'0 0.0
2014-Jul-21 03:28N 37°57' W 008°52'1 1.1
2014-Jul-21 02:33N 37°56' W 008°51'2 0.3
2014-Jul-20 20:33N 37°56' W 008°53'1 0.4
2014-Jul-20 17:05N 37°57' W 008°52'2 3.1
2014-Jul-20 16:34N 37°55' W 008°51'1 0.5
2014-Jul-20 15:33N 37°56' W 008°51'2 1.6
2014-Jul-20 14:33N 37°56' W 008°53'1 0.2
2014-Jul-20 09:33N 37°57' W 008°52'1 0.5
2014-Jul-20 07:33N 37°56' W 008°51'1 0.9
2014-Jul-20 06:16N 37°57' W 008°52'1 1.6
2014-Jul-20 05:33N 37°56' W 008°51'1 1.1
2014-Jul-20 04:33N 37°56' W 008°52'0 0.1
2014-Jul-19 19:33N 37°56' W 008°52'2 1.0
2014-Jul-19 17:33N 37°55' W 008°52'2 1.8
2014-Jul-19 16:17N 37°57' W 008°52'0 0.1
2014-Jul-19 15:33N 37°57' W 008°52'1 1.3
2014-Jul-19 14:33N 37°57' W 008°53'1 0.3
2014-Jul-19 10:13N 37°57' W 008°52'0 0.0
2014-Jul-19 08:32N 37°57' W 008°52'1 1.2
2014-Jul-19 07:33N 37°56' W 008°51'2 0.5
2014-Jul-19 03:33N 37°57' W 008°53'2 0.6
2014-Jul-18 23:33N 37°55' W 008°51'1 0.3
2014-Jul-18 18:33N 37°56' W 008°52'1 0.3
2014-Jul-18 15:33N 37°57' W 008°52'1 0.3
2014-Jul-18 13:27N 37°57' W 008°52'0 0.0
2014-Jul-18 12:24N 37°57' W 008°52'1 0.4
2014-Jul-18 10:25N 37°56' W 008°51'1 0.4
2014-Jul-18 08:32N 37°55' W 008°51'1 1.4
2014-Jul-18 07:33N 37°57' W 008°52'0 0.0
2014-Jul-18 03:30N 37°57' W 008°52'0 0.0
2014-Jul-18 02:33N 37°57' W 008°52'0 0.0
2014-Jul-17 22:33N 37°57' W 008°52'1 0.6
2014-Jul-17 20:33N 37°57' W 008°53'1 0.6
2014-Jul-17 19:33N 37°57' W 008°52'1 0.4
2014-Jul-17 18:13N 37°57' W 008°52'1 1.7
2014-Jul-17 17:33N 37°56' W 008°51'2 0.3
2014-Jul-17 11:33N 37°54' W 008°50'3 0.5
2014-Jul-17 05:24N 37°57' W 008°52'1 1.1
2014-Jul-17 04:33N 37°56' W 008°51'1 1.2
2014-Jul-17 03:33N 37°57' W 008°52'1 0.6
2014-Jul-17 02:33N 37°57' W 008°52'0 0.2
2014-Jul-17 01:33N 37°57' W 008°52'0 0.2
2014-Jul-17 00:19N 37°57' W 008°52'1 0.9
2014-Jul-16 23:33N 37°57' W 008°52'1 0.2
2014-Jul-16 20:06N 37°57' W 008°52'0 0.4
2014-Jul-16 19:33N 37°57' W 008°52'0 0.1
2014-Jul-16 17:13N 37°57' W 008°52'1 1.9
2014-Jul-16 16:33N 37°57' W 008°53'1 0.5
2014-Jul-16 14:10N 37°57' W 008°52'1 0.1
2014-Jul-16 10:32N 37°57' W 008°52'1 0.2
2014-Jul-16 08:15N 37°57' W 008°52'1 1.4
2014-Jul-16 07:33N 37°56' W 008°52'1 0.4
2014-Jul-16 05:16N 37°57' W 008°52'0 0.0
2014-Jul-16 04:33N 37°57' W 008°52'1 1.3
2014-Jul-16 03:33N 37°57' W 008°53'2 0.3
2014-Jul-15 19:33N 37°56' W 008°51'1 0.6
2014-Jul-15 17:22N 37°57' W 008°52'0 0.2
2014-Jul-15 16:33N 37°57' W 008°52'0 0.1
2014-Jul-15 14:16N 37°57' W 008°52'0 0.0
2014-Jul-15 13:05N 37°57' W 008°52'1 1.7
2014-Jul-15 12:33N 37°56' W 008°51'2 1.9
2014-Jul-15 11:33N 37°57' W 008°53'3 1.4
2014-Jul-15 09:33N 37°55' W 008°51'1 1.0
2014-Jul-15 08:33N 37°56' W 008°51'1 1.2
2014-Jul-15 07:33N 37°57' W 008°52'0 0.0
2014-Jul-14 22:11N 37°57' W 008°52'1 1.3
2014-Jul-14 21:33N 37°56' W 008°51'0 0.2
2014-Jul-14 20:33N 37°56' W 008°51'1 0.6
2014-Jul-14 19:03N 37°57' W 008°52'1 2.4
2014-Jul-14 18:33N 37°56' W 008°51'  

Dump ship's entire track history